sensor_id;sensor_type;location;lat;lon;timestamp;P1;durP1;ratioP1;P2;durP2;ratioP2
56631;SDS011;42503;39.928;-75.152;2022-08-03T00:01:24;8.32;;;4.60;;
56631;SDS011;42503;39.928;-75.152;2022-08-03T00:03:25;6.78;;;4.70;;
56631;SDS011;42503;39.928;-75.152;2022-08-03T00:05:26;9.32;;;4.60;;
56631;SDS011;42503;39.928;-75.152;2022-08-03T00:07:27;10.82;;;4.43;;
56631;SDS011;42503;39.928;-75.152;2022-08-03T00:09:28;11.30;;;4.47;;
56631;SDS011;42503;39.928;-75.152;2022-08-03T00:11:30;10.23;;;4.57;;
56631;SDS011;42503;39.928;-75.152;2022-08-03T00:13:31;7.05;;;4.90;;
56631;SDS011;42503;39.928;-75.152;2022-08-03T00:15:32;8.50;;;4.20;;
56631;SDS011;42503;39.928;-75.152;2022-08-03T00:17:34;5.13;;;4.10;;
56631;SDS011;42503;39.928;-75.152;2022-08-03T00:19:35;7.93;;;4.40;;
56631;SDS011;42503;39.928;-75.152;2022-08-03T00:21:36;5.65;;;4.25;;
56631;SDS011;42503;39.928;-75.152;2022-08-03T00:23:37;5.57;;;4.72;;
56631;SDS011;42503;39.928;-75.152;2022-08-03T00:25:41;5.35;;;4.15;;
56631;SDS011;42503;39.928;-75.152;2022-08-03T00:27:42;7.03;;;4.40;;
56631;SDS011;42503;39.928;-75.152;2022-08-03T00:29:43;5.00;;;4.47;;
56631;SDS011;42503;39.928;-75.152;2022-08-03T00:31:43;4.53;;;4.05;;
56631;SDS011;42503;39.928;-75.152;2022-08-03T00:33:48;6.55;;;4.60;;
56631;SDS011;42503;39.928;-75.152;2022-08-03T00:35:49;5.68;;;4.60;;
56631;SDS011;42503;39.928;-75.152;2022-08-03T00:37:50;8.93;;;4.75;;
56631;SDS011;42503;39.928;-75.152;2022-08-03T00:39:51;4.85;;;4.32;;
56631;SDS011;42503;39.928;-75.152;2022-08-03T00:41:51;5.35;;;4.35;;
56631;SDS011;42503;39.928;-75.152;2022-08-03T00:43:52;7.65;;;4.38;;
56631;SDS011;42503;39.928;-75.152;2022-08-03T00:45:56;5.05;;;4.28;;
56631;SDS011;42503;39.928;-75.152;2022-08-03T00:47:57;7.18;;;4.70;;
56631;SDS011;42503;39.928;-75.152;2022-08-03T00:50:01;6.28;;;4.28;;
56631;SDS011;42503;39.928;-75.152;2022-08-03T00:52:07;8.45;;;4.20;;
56631;SDS011;42503;39.928;-75.152;2022-08-03T00:54:08;4.45;;;4.05;;
56631;SDS011;42503;39.928;-75.152;2022-08-03T00:56:11;7.65;;;4.78;;
56631;SDS011;42503;39.928;-75.152;2022-08-03T00:58:12;5.78;;;4.43;;
56631;SDS011;42503;39.928;-75.152;2022-08-03T01:00:17;5.32;;;4.82;;
56631;SDS011;42503;39.928;-75.152;2022-08-03T01:02:19;8.60;;;5.07;;
56631;SDS011;42503;39.928;-75.152;2022-08-03T01:04:20;5.20;;;4.00;;
56631;SDS011;42503;39.928;-75.152;2022-08-03T01:06:33;4.83;;;4.33;;
56631;SDS011;42503;39.928;-75.152;2022-08-03T01:08:41;7.03;;;4.35;;
56631;SDS011;42503;39.928;-75.152;2022-08-03T01:13:07;7.55;;;4.65;;
56631;SDS011;42503;39.928;-75.152;2022-08-03T01:15:14;4.53;;;4.13;;
56631;SDS011;42503;39.928;-75.152;2022-08-03T01:17:22;5.68;;;4.32;;
56631;SDS011;42503;39.928;-75.152;2022-08-03T01:23:56;5.00;;;4.50;;
56631;SDS011;42503;39.928;-75.152;2022-08-03T01:26:02;4.43;;;4.00;;
56631;SDS011;42503;39.928;-75.152;2022-08-03T01:30:26;4.68;;;4.13;;
56631;SDS011;42503;39.928;-75.152;2022-08-03T01:34:33;5.05;;;4.10;;
56631;SDS011;42503;39.928;-75.152;2022-08-03T01:36:37;4.78;;;4.38;;
56631;SDS011;42503;39.928;-75.152;2022-08-03T01:38:45;6.03;;;4.10;;
56631;SDS011;42503;39.928;-75.152;2022-08-03T01:40:47;4.55;;;4.15;;
56631;SDS011;42503;39.928;-75.152;2022-08-03T01:42:51;5.97;;;4.40;;
56631;SDS011;42503;39.928;-75.152;2022-08-03T01:44:54;4.80;;;4.30;;
56631;SDS011;42503;39.928;-75.152;2022-08-03T01:47:00;4.95;;;4.20;;
56631;SDS011;42503;39.928;-75.152;2022-08-03T01:49:03;4.55;;;4.15;;
56631;SDS011;42503;39.928;-75.152;2022-08-03T01:51:06;5.88;;;4.35;;
56631;SDS011;42503;39.928;-75.152;2022-08-03T01:53:08;4.50;;;4.13;;
56631;SDS011;42503;39.928;-75.152;2022-08-03T01:55:09;4.75;;;4.35;;
56631;SDS011;42503;39.928;-75.152;2022-08-03T01:57:14;5.32;;;4.90;;
56631;SDS011;42503;39.928;-75.152;2022-08-03T01:59:15;5.27;;;4.77;;
56631;SDS011;42503;39.928;-75.152;2022-08-03T02:01:19;4.35;;;4.05;;
56631;SDS011;42503;39.928;-75.152;2022-08-03T02:03:20;5.22;;;4.30;;
56631;SDS011;42503;39.928;-75.152;2022-08-03T02:05:25;4.53;;;4.13;;
56631;SDS011;42503;39.928;-75.152;2022-08-03T02:07:26;5.70;;;4.45;;
56631;SDS011;42503;39.928;-75.152;2022-08-03T02:09:36;4.90;;;4.38;;
56631;SDS011;42503;39.928;-75.152;2022-08-03T02:11:37;4.72;;;4.32;;
56631;SDS011;42503;39.928;-75.152;2022-08-03T02:13:38;4.50;;;4.10;;
56631;SDS011;42503;39.928;-75.152;2022-08-03T02:15:40;9.93;;;4.40;;
56631;SDS011;42503;39.928;-75.152;2022-08-03T02:17:41;4.30;;;3.90;;
56631;SDS011;42503;39.928;-75.152;2022-08-03T02:19:43;4.40;;;4.00;;
56631;SDS011;42503;39.928;-75.152;2022-08-03T02:21:47;4.35;;;3.92;;
56631;SDS011;42503;39.928;-75.152;2022-08-03T02:23:48;4.30;;;3.90;;
56631;SDS011;42503;39.928;-75.152;2022-08-03T02:25:50;5.65;;;4.25;;
56631;SDS011;42503;39.928;-75.152;2022-08-03T02:28:13;4.60;;;4.20;;
56631;SDS011;42503;39.928;-75.152;2022-08-03T02:30:15;4.93;;;3.83;;
56631;SDS011;42503;39.928;-75.152;2022-08-03T02:32:19;4.93;;;4.43;;
56631;SDS011;42503;39.928;-75.152;2022-08-03T02:34:20;4.28;;;3.88;;
56631;SDS011;42503;39.928;-75.152;2022-08-03T02:36:24;4.57;;;4.18;;
56631;SDS011;42503;39.928;-75.152;2022-08-03T02:38:27;4.75;;;4.03;;
56631;SDS011;42503;39.928;-75.152;2022-08-03T02:40:33;4.97;;;4.13;;
56631;SDS011;42503;39.928;-75.152;2022-08-03T02:42:35;4.40;;;4.00;;
56631;SDS011;42503;39.928;-75.152;2022-08-03T02:44:37;6.32;;;4.25;;
56631;SDS011;42503;39.928;-75.152;2022-08-03T02:46:47;4.90;;;4.40;;
56631;SDS011;42503;39.928;-75.152;2022-08-03T02:48:51;4.53;;;4.10;;
56631;SDS011;42503;39.928;-75.152;2022-08-03T02:50:53;4.70;;;4.20;;
56631;SDS011;42503;39.928;-75.152;2022-08-03T02:52:54;4.75;;;4.35;;
56631;SDS011;42503;39.928;-75.152;2022-08-03T02:54:57;4.72;;;4.25;;
56631;SDS011;42503;39.928;-75.152;2022-08-03T02:56:59;4.63;;;4.18;;
56631;SDS011;42503;39.928;-75.152;2022-08-03T02:59:00;4.90;;;4.40;;
56631;SDS011;42503;39.928;-75.152;2022-08-03T03:01:02;4.88;;;4.47;;
56631;SDS011;42503;39.928;-75.152;2022-08-03T03:03:03;4.75;;;4.35;;
56631;SDS011;42503;39.928;-75.152;2022-08-03T03:05:06;5.00;;;4.50;;
56631;SDS011;42503;39.928;-75.152;2022-08-03T03:07:07;4.82;;;4.40;;
56631;SDS011;42503;39.928;-75.152;2022-08-03T03:09:08;4.60;;;4.20;;
56631;SDS011;42503;39.928;-75.152;2022-08-03T03:11:09;4.63;;;4.22;;
56631;SDS011;42503;39.928;-75.152;2022-08-03T03:13:11;4.57;;;4.18;;
56631;SDS011;42503;39.928;-75.152;2022-08-03T03:15:13;4.50;;;4.10;;
56631;SDS011;42503;39.928;-75.152;2022-08-03T03:17:14;5.00;;;4.47;;
56631;SDS011;42503;39.928;-75.152;2022-08-03T03:19:17;5.60;;;3.85;;
56631;SDS011;42503;39.928;-75.152;2022-08-03T03:21:21;4.75;;;4.25;;
56631;SDS011;42503;39.928;-75.152;2022-08-03T03:23:25;4.50;;;4.10;;
56631;SDS011;42503;39.928;-75.152;2022-08-03T03:25:30;4.85;;;4.05;;
56631;SDS011;42503;39.928;-75.152;2022-08-03T03:27:33;4.45;;;4.10;;
56631;SDS011;42503;39.928;-75.152;2022-08-03T03:29:34;4.60;;;4.20;;
56631;SDS011;42503;39.928;-75.152;2022-08-03T03:31:36;4.70;;;4.30;;
56631;SDS011;42503;39.928;-75.152;2022-08-03T03:33:37;3.88;;;3.58;;
56631;SDS011;42503;39.928;-75.152;2022-08-03T03:35:39;4.22;;;3.90;;
56631;SDS011;42503;39.928;-75.152;2022-08-03T03:37:40;4.65;;;4.25;;
56631;SDS011;42503;39.928;-75.152;2022-08-03T03:39:41;4.40;;;4.00;;
56631;SDS011;42503;39.928;-75.152;2022-08-03T03:41:42;4.68;;;4.15;;
56631;SDS011;42503;39.928;-75.152;2022-08-03T03:43:43;4.85;;;4.20;;
56631;SDS011;42503;39.928;-75.152;2022-08-03T03:45:47;4.22;;;3.92;;
56631;SDS011;42503;39.928;-75.152;2022-08-03T03:47:48;5.00;;;4.22;;
56631;SDS011;42503;39.928;-75.152;2022-08-03T03:49:49;5.57;;;4.15;;
56631;SDS011;42503;39.928;-75.152;2022-08-03T03:51:53;4.28;;;3.88;;
56631;SDS011;42503;39.928;-75.152;2022-08-03T03:55:55;3.90;;;3.60;;
56631;SDS011;42503;39.928;-75.152;2022-08-03T03:57:59;4.65;;;4.25;;
56631;SDS011;42503;39.928;-75.152;2022-08-03T04:00:00;4.35;;;3.97;;
56631;SDS011;42503;39.928;-75.152;2022-08-03T04:02:01;4.28;;;3.92;;
56631;SDS011;42503;39.928;-75.152;2022-08-03T04:04:02;4.07;;;3.78;;
56631;SDS011;42503;39.928;-75.152;2022-08-03T04:06:23;5.32;;;4.50;;
56631;SDS011;42503;39.928;-75.152;2022-08-03T04:08:42;4.75;;;4.15;;
56631;SDS011;42503;39.928;-75.152;2022-08-03T04:11:19;4.20;;;3.90;;
56631;SDS011;42503;39.928;-75.152;2022-08-03T04:13:20;4.28;;;3.88;;
56631;SDS011;42503;39.928;-75.152;2022-08-03T04:15:21;5.00;;;4.50;;
56631;SDS011;42503;39.928;-75.152;2022-08-03T04:17:24;4.22;;;3.92;;
56631;SDS011;42503;39.928;-75.152;2022-08-03T04:19:49;3.90;;;3.60;;
56631;SDS011;42503;39.928;-75.152;2022-08-03T04:21:48;4.18;;;3.78;;
56631;SDS011;42503;39.928;-75.152;2022-08-03T04:23:52;4.30;;;3.85;;
56631;SDS011;42503;39.928;-75.152;2022-08-03T04:25:54;4.00;;;3.70;;
56631;SDS011;42503;39.928;-75.152;2022-08-03T04:27:56;4.65;;;4.25;;
56631;SDS011;42503;39.928;-75.152;2022-08-03T04:29:58;4.65;;;3.72;;
56631;SDS011;42503;39.928;-75.152;2022-08-03T04:32:01;4.20;;;3.90;;
56631;SDS011;42503;39.928;-75.152;2022-08-03T04:34:04;3.95;;;3.60;;
56631;SDS011;42503;39.928;-75.152;2022-08-03T04:36:06;4.20;;;3.80;;
56631;SDS011;42503;39.928;-75.152;2022-08-03T04:38:08;3.80;;;3.50;;
56631;SDS011;42503;39.928;-75.152;2022-08-03T04:40:24;4.13;;;3.83;;
56631;SDS011;42503;39.928;-75.152;2022-08-03T04:42:25;4.40;;;4.00;;
56631;SDS011;42503;39.928;-75.152;2022-08-03T04:44:27;3.92;;;3.63;;
56631;SDS011;42503;39.928;-75.152;2022-08-03T04:46:31;3.90;;;3.53;;
56631;SDS011;42503;39.928;-75.152;2022-08-03T04:48:34;4.22;;;3.83;;
56631;SDS011;42503;39.928;-75.152;2022-08-03T04:50:35;4.25;;;3.90;;
56631;SDS011;42503;39.928;-75.152;2022-08-03T04:52:36;4.00;;;3.58;;
56631;SDS011;42503;39.928;-75.152;2022-08-03T04:54:41;3.88;;;3.58;;
56631;SDS011;42503;39.928;-75.152;2022-08-03T04:56:42;3.88;;;3.42;;
56631;SDS011;42503;39.928;-75.152;2022-08-03T04:58:43;3.95;;;3.65;;
56631;SDS011;42503;39.928;-75.152;2022-08-03T05:00:44;4.32;;;3.95;;
56631;SDS011;42503;39.928;-75.152;2022-08-03T05:02:45;4.20;;;3.90;;
56631;SDS011;42503;39.928;-75.152;2022-08-03T05:04:46;3.78;;;3.47;;
56631;SDS011;42503;39.928;-75.152;2022-08-03T05:06:47;4.03;;;3.63;;
56631;SDS011;42503;39.928;-75.152;2022-08-03T05:08:51;4.20;;;3.90;;
56631;SDS011;42503;39.928;-75.152;2022-08-03T05:10:54;3.90;;;3.60;;
56631;SDS011;42503;39.928;-75.152;2022-08-03T05:12:55;4.07;;;3.67;;
56631;SDS011;42503;39.928;-75.152;2022-08-03T05:14:59;3.90;;;3.60;;
56631;SDS011;42503;39.928;-75.152;2022-08-03T05:17:00;4.00;;;3.70;;
56631;SDS011;42503;39.928;-75.152;2022-08-03T05:19:01;3.78;;;3.47;;
56631;SDS011;42503;39.928;-75.152;2022-08-03T05:21:02;3.58;;;3.28;;
56631;SDS011;42503;39.928;-75.152;2022-08-03T05:23:06;4.20;;;3.80;;
56631;SDS011;42503;39.928;-75.152;2022-08-03T05:25:07;3.65;;;3.35;;
56631;SDS011;42503;39.928;-75.152;2022-08-03T05:27:08;3.67;;;3.38;;
56631;SDS011;42503;39.928;-75.152;2022-08-03T05:29:09;4.45;;;4.03;;
56631;SDS011;42503;39.928;-75.152;2022-08-03T05:31:09;3.65;;;3.35;;
56631;SDS011;42503;39.928;-75.152;2022-08-03T05:33:13;4.25;;;3.88;;
56631;SDS011;42503;39.928;-75.152;2022-08-03T05:35:14;3.70;;;3.40;;
56631;SDS011;42503;39.928;-75.152;2022-08-03T05:37:15;3.67;;;3.38;;
56631;SDS011;42503;39.928;-75.152;2022-08-03T05:39:18;3.78;;;3.47;;
56631;SDS011;42503;39.928;-75.152;2022-08-03T05:41:19;3.83;;;3.53;;
56631;SDS011;42503;39.928;-75.152;2022-08-03T05:43:20;3.88;;;3.47;;
56631;SDS011;42503;39.928;-75.152;2022-08-03T05:45:22;4.10;;;3.70;;
56631;SDS011;42503;39.928;-75.152;2022-08-03T05:47:23;4.40;;;3.60;;
56631;SDS011;42503;39.928;-75.152;2022-08-03T05:49:24;3.85;;;3.55;;
56631;SDS011;42503;39.928;-75.152;2022-08-03T05:51:25;3.80;;;3.50;;
56631;SDS011;42503;39.928;-75.152;2022-08-03T05:53:27;4.35;;;3.83;;
56631;SDS011;42503;39.928;-75.152;2022-08-03T05:55:28;4.30;;;3.45;;
56631;SDS011;42503;39.928;-75.152;2022-08-03T05:57:28;4.15;;;3.50;;
56631;SDS011;42503;39.928;-75.152;2022-08-03T05:59:29;3.75;;;3.45;;
56631;SDS011;42503;39.928;-75.152;2022-08-03T06:01:33;5.60;;;3.67;;
56631;SDS011;42503;39.928;-75.152;2022-08-03T06:03:36;3.90;;;3.50;;
56631;SDS011;42503;39.928;-75.152;2022-08-03T06:05:37;6.97;;;4.10;;
56631;SDS011;42503;39.928;-75.152;2022-08-03T06:07:43;5.80;;;3.42;;
56631;SDS011;42503;39.928;-75.152;2022-08-03T06:09:44;4.72;;;3.88;;
56631;SDS011;42503;39.928;-75.152;2022-08-03T06:11:47;4.93;;;3.75;;
56631;SDS011;42503;39.928;-75.152;2022-08-03T06:13:48;4.95;;;4.18;;
56631;SDS011;42503;39.928;-75.152;2022-08-03T06:15:49;5.88;;;4.35;;
56631;SDS011;42503;39.928;-75.152;2022-08-03T06:17:50;4.82;;;4.30;;
56631;SDS011;42503;39.928;-75.152;2022-08-03T06:19:56;6.35;;;4.47;;
56631;SDS011;42503;39.928;-75.152;2022-08-03T06:22:00;6.50;;;4.03;;
56631;SDS011;42503;39.928;-75.152;2022-08-03T06:24:01;6.63;;;4.40;;
56631;SDS011;42503;39.928;-75.152;2022-08-03T06:26:02;4.68;;;4.28;;
56631;SDS011;42503;39.928;-75.152;2022-08-03T06:28:03;5.72;;;4.35;;
56631;SDS011;42503;39.928;-75.152;2022-08-03T06:30:08;5.30;;;4.65;;
56631;SDS011;42503;39.928;-75.152;2022-08-03T06:32:10;6.07;;;5.13;;
56631;SDS011;42503;39.928;-75.152;2022-08-03T06:34:10;5.75;;;4.80;;
56631;SDS011;42503;39.928;-75.152;2022-08-03T06:36:11;7.95;;;5.00;;
56631;SDS011;42503;39.928;-75.152;2022-08-03T06:38:12;6.25;;;4.28;;
56631;SDS011;42503;39.928;-75.152;2022-08-03T06:40:17;5.45;;;4.80;;
56631;SDS011;42503;39.928;-75.152;2022-08-03T06:42:18;5.75;;;5.00;;
56631;SDS011;42503;39.928;-75.152;2022-08-03T06:44:22;5.70;;;4.63;;
56631;SDS011;42503;39.928;-75.152;2022-08-03T06:46:23;5.05;;;4.47;;
56631;SDS011;42503;39.928;-75.152;2022-08-03T06:48:24;5.15;;;4.60;;
56631;SDS011;42503;39.928;-75.152;2022-08-03T06:50:25;5.50;;;4.38;;
56631;SDS011;42503;39.928;-75.152;2022-08-03T06:52:26;5.80;;;4.80;;
56631;SDS011;42503;39.928;-75.152;2022-08-03T06:54:27;4.90;;;4.50;;
56631;SDS011;42503;39.928;-75.152;2022-08-03T06:56:30;4.75;;;4.28;;
56631;SDS011;42503;39.928;-75.152;2022-08-03T06:58:34;5.13;;;4.57;;
56631;SDS011;42503;39.928;-75.152;2022-08-03T07:00:35;4.95;;;4.47;;
56631;SDS011;42503;39.928;-75.152;2022-08-03T07:02:36;5.40;;;4.40;;
56631;SDS011;42503;39.928;-75.152;2022-08-03T07:04:37;5.00;;;4.50;;
56631;SDS011;42503;39.928;-75.152;2022-08-03T07:06:41;6.45;;;4.25;;
56631;SDS011;42503;39.928;-75.152;2022-08-03T07:08:44;6.13;;;4.22;;
56631;SDS011;42503;39.928;-75.152;2022-08-03T07:10:45;5.10;;;4.38;;
56631;SDS011;42503;39.928;-75.152;2022-08-03T07:12:46;4.63;;;4.00;;
56631;SDS011;42503;39.928;-75.152;2022-08-03T07:14:47;4.75;;;4.20;;
56631;SDS011;42503;39.928;-75.152;2022-08-03T07:16:51;5.53;;;4.65;;
56631;SDS011;42503;39.928;-75.152;2022-08-03T07:18:54;5.57;;;4.25;;
56631;SDS011;42503;39.928;-75.152;2022-08-03T07:20:56;5.03;;;4.47;;
56631;SDS011;42503;39.928;-75.152;2022-08-03T07:22:57;5.90;;;4.03;;
56631;SDS011;42503;39.928;-75.152;2022-08-03T07:24:58;4.40;;;4.00;;
56631;SDS011;42503;39.928;-75.152;2022-08-03T07:26:59;4.90;;;4.40;;
56631;SDS011;42503;39.928;-75.152;2022-08-03T07:29:00;4.38;;;3.97;;
56631;SDS011;42503;39.928;-75.152;2022-08-03T07:31:06;4.82;;;4.35;;
56631;SDS011;42503;39.928;-75.152;2022-08-03T07:33:07;4.97;;;4.50;;
56631;SDS011;42503;39.928;-75.152;2022-08-03T07:35:08;4.55;;;4.15;;
56631;SDS011;42503;39.928;-75.152;2022-08-03T07:37:10;4.85;;;4.38;;
56631;SDS011;42503;39.928;-75.152;2022-08-03T07:39:11;5.93;;;4.30;;
56631;SDS011;42503;39.928;-75.152;2022-08-03T07:41:15;3.80;;;3.50;;
56631;SDS011;42503;39.928;-75.152;2022-08-03T07:43:16;5.95;;;3.85;;
56631;SDS011;42503;39.928;-75.152;2022-08-03T07:45:17;3.80;;;3.50;;
56631;SDS011;42503;39.928;-75.152;2022-08-03T07:47:20;4.53;;;4.13;;
56631;SDS011;42503;39.928;-75.152;2022-08-03T07:49:22;4.82;;;4.32;;
56631;SDS011;42503;39.928;-75.152;2022-08-03T07:51:26;4.40;;;4.00;;
56631;SDS011;42503;39.928;-75.152;2022-08-03T07:53:27;4.22;;;3.83;;
56631;SDS011;42503;39.928;-75.152;2022-08-03T07:55:28;4.25;;;3.85;;
56631;SDS011;42503;39.928;-75.152;2022-08-03T07:57:30;4.75;;;4.32;;
56631;SDS011;42503;39.928;-75.152;2022-08-03T07:59:30;4.03;;;3.63;;
56631;SDS011;42503;39.928;-75.152;2022-08-03T08:01:32;3.92;;;3.60;;
56631;SDS011;42503;39.928;-75.152;2022-08-03T08:03:38;5.53;;;3.70;;
56631;SDS011;42503;39.928;-75.152;2022-08-03T08:05:42;4.65;;;3.58;;
56631;SDS011;42503;39.928;-75.152;2022-08-03T08:07:43;4.55;;;4.10;;
56631;SDS011;42503;39.928;-75.152;2022-08-03T08:09:44;3.85;;;3.35;;
56631;SDS011;42503;39.928;-75.152;2022-08-03T08:11:45;4.15;;;3.75;;
56631;SDS011;42503;39.928;-75.152;2022-08-03T08:13:46;4.10;;;3.22;;
56631;SDS011;42503;39.928;-75.152;2022-08-03T08:15:46;4.10;;;3.70;;
56631;SDS011;42503;39.928;-75.152;2022-08-03T08:17:48;3.72;;;3.38;;
56631;SDS011;42503;39.928;-75.152;2022-08-03T08:19:50;4.60;;;3.63;;
56631;SDS011;42503;39.928;-75.152;2022-08-03T08:21:50;3.65;;;3.00;;
56631;SDS011;42503;39.928;-75.152;2022-08-03T08:23:51;4.95;;;3.63;;
56631;SDS011;42503;39.928;-75.152;2022-08-03T08:25:52;5.18;;;3.72;;
56631;SDS011;42503;39.928;-75.152;2022-08-03T08:27:53;3.78;;;3.38;;
56631;SDS011;42503;39.928;-75.152;2022-08-03T08:29:56;3.70;;;3.40;;
56631;SDS011;42503;39.928;-75.152;2022-08-03T08:31:57;3.95;;;3.55;;
56631;SDS011;42503;39.928;-75.152;2022-08-03T08:33:58;3.67;;;3.38;;
56631;SDS011;42503;39.928;-75.152;2022-08-03T08:35:59;3.70;;;3.40;;
56631;SDS011;42503;39.928;-75.152;2022-08-03T08:38:03;3.67;;;3.30;;
56631;SDS011;42503;39.928;-75.152;2022-08-03T08:40:07;3.90;;;3.53;;
56631;SDS011;42503;39.928;-75.152;2022-08-03T08:42:08;4.30;;;3.50;;
56631;SDS011;42503;39.928;-75.152;2022-08-03T08:44:09;5.85;;;3.42;;
56631;SDS011;42503;39.928;-75.152;2022-08-03T08:46:11;3.90;;;3.40;;
56631;SDS011;42503;39.928;-75.152;2022-08-03T08:48:19;3.55;;;3.25;;
56631;SDS011;42503;39.928;-75.152;2022-08-03T08:50:21;3.15;;;2.95;;
56631;SDS011;42503;39.928;-75.152;2022-08-03T08:52:29;3.40;;;3.10;;
56631;SDS011;42503;39.928;-75.152;2022-08-03T08:54:32;3.38;;;3.08;;
56631;SDS011;42503;39.928;-75.152;2022-08-03T08:56:34;3.67;;;3.30;;
56631;SDS011;42503;39.928;-75.152;2022-08-03T08:58:36;3.40;;;3.10;;
56631;SDS011;42503;39.928;-75.152;2022-08-03T09:00:38;3.47;;;3.17;;
56631;SDS011;42503;39.928;-75.152;2022-08-03T09:02:39;3.05;;;2.83;;
56631;SDS011;42503;39.928;-75.152;2022-08-03T09:04:41;3.63;;;3.17;;
56631;SDS011;42503;39.928;-75.152;2022-08-03T09:06:45;3.83;;;3.53;;
56631;SDS011;42503;39.928;-75.152;2022-08-03T09:08:45;3.50;;;3.20;;
56631;SDS011;42503;39.928;-75.152;2022-08-03T09:10:46;3.50;;;3.20;;
56631;SDS011;42503;39.928;-75.152;2022-08-03T09:12:49;3.60;;;3.00;;
56631;SDS011;42503;39.928;-75.152;2022-08-03T09:14:54;3.60;;;3.30;;
56631;SDS011;42503;39.928;-75.152;2022-08-03T09:16:55;3.45;;;3.15;;
56631;SDS011;42503;39.928;-75.152;2022-08-03T09:19:11;3.28;;;2.97;;
56631;SDS011;42503;39.928;-75.152;2022-08-03T09:21:17;3.40;;;3.10;;
56631;SDS011;42503;39.928;-75.152;2022-08-03T09:23:21;3.40;;;3.10;;
56631;SDS011;42503;39.928;-75.152;2022-08-03T09:25:35;3.13;;;2.88;;
56631;SDS011;42503;39.928;-75.152;2022-08-03T09:29:55;3.22;;;2.92;;
56631;SDS011;42503;39.928;-75.152;2022-08-03T09:32:02;3.10;;;2.90;;
56631;SDS011;42503;39.928;-75.152;2022-08-03T09:34:04;3.35;;;3.05;;
56631;SDS011;42503;39.928;-75.152;2022-08-03T09:36:05;3.50;;;3.20;;
56631;SDS011;42503;39.928;-75.152;2022-08-03T09:38:10;3.20;;;2.90;;
56631;SDS011;42503;39.928;-75.152;2022-08-03T09:40:13;3.00;;;2.80;;
56631;SDS011;42503;39.928;-75.152;2022-08-03T09:42:32;3.20;;;2.90;;
56631;SDS011;42503;39.928;-75.152;2022-08-03T09:44:38;3.22;;;2.80;;
56631;SDS011;42503;39.928;-75.152;2022-08-03T09:46:48;3.30;;;3.00;;
56631;SDS011;42503;39.928;-75.152;2022-08-03T09:48:52;3.00;;;2.72;;
56631;SDS011;42503;39.928;-75.152;2022-08-03T09:50:57;3.20;;;2.90;;
56631;SDS011;42503;39.928;-75.152;2022-08-03T09:53:00;3.17;;;2.90;;
56631;SDS011;42503;39.928;-75.152;2022-08-03T09:55:06;3.38;;;3.08;;
56631;SDS011;42503;39.928;-75.152;2022-08-03T09:57:07;3.03;;;2.40;;
56631;SDS011;42503;39.928;-75.152;2022-08-03T09:59:09;2.83;;;2.63;;
56631;SDS011;42503;39.928;-75.152;2022-08-03T10:01:13;3.20;;;2.90;;
56631;SDS011;42503;39.928;-75.152;2022-08-03T10:03:14;3.10;;;2.80;;
56631;SDS011;42503;39.928;-75.152;2022-08-03T10:05:15;3.53;;;3.22;;
56631;SDS011;42503;39.928;-75.152;2022-08-03T10:07:16;2.90;;;2.70;;
56631;SDS011;42503;39.928;-75.152;2022-08-03T10:09:17;3.15;;;2.85;;
56631;SDS011;42503;39.928;-75.152;2022-08-03T10:11:33;3.25;;;2.95;;
56631;SDS011;42503;39.928;-75.152;2022-08-03T10:13:39;3.33;;;3.03;;
56631;SDS011;42503;39.928;-75.152;2022-08-03T10:15:40;3.28;;;2.70;;
56631;SDS011;42503;39.928;-75.152;2022-08-03T10:17:41;2.50;;;2.30;;
56631;SDS011;42503;39.928;-75.152;2022-08-03T10:19:42;3.17;;;2.88;;
56631;SDS011;42503;39.928;-75.152;2022-08-03T10:21:54;3.22;;;2.92;;
56631;SDS011;42503;39.928;-75.152;2022-08-03T10:23:55;2.85;;;2.65;;
56631;SDS011;42503;39.928;-75.152;2022-08-03T10:26:01;3.33;;;2.50;;
56631;SDS011;42503;39.928;-75.152;2022-08-03T10:28:02;2.90;;;2.70;;
56631;SDS011;42503;39.928;-75.152;2022-08-03T10:30:08;2.75;;;2.55;;
56631;SDS011;42503;39.928;-75.152;2022-08-03T10:32:13;2.85;;;2.65;;
56631;SDS011;42503;39.928;-75.152;2022-08-03T10:34:21;2.70;;;2.50;;
56631;SDS011;42503;39.928;-75.152;2022-08-03T10:36:22;2.50;;;2.30;;
56631;SDS011;42503;39.928;-75.152;2022-08-03T10:38:28;3.28;;;2.97;;
56631;SDS011;42503;39.928;-75.152;2022-08-03T10:40:31;2.50;;;2.30;;
56631;SDS011;42503;39.928;-75.152;2022-08-03T10:42:33;3.00;;;2.70;;
56631;SDS011;42503;39.928;-75.152;2022-08-03T10:44:36;2.80;;;2.60;;
56631;SDS011;42503;39.928;-75.152;2022-08-03T10:46:39;3.30;;;3.00;;
56631;SDS011;42503;39.928;-75.152;2022-08-03T10:48:41;2.70;;;2.50;;
56631;SDS011;42503;39.928;-75.152;2022-08-03T10:50:42;2.90;;;2.70;;
56631;SDS011;42503;39.928;-75.152;2022-08-03T10:52:56;2.67;;;2.47;;
56631;SDS011;42503;39.928;-75.152;2022-08-03T10:54:57;2.75;;;2.55;;
56631;SDS011;42503;39.928;-75.152;2022-08-03T10:57:40;2.65;;;2.45;;
56631;SDS011;42503;39.928;-75.152;2022-08-03T11:02:05;2.97;;;2.60;;
56631;SDS011;42503;39.928;-75.152;2022-08-03T11:04:18;2.50;;;2.30;;
56631;SDS011;42503;39.928;-75.152;2022-08-03T11:06:23;2.78;;;2.58;;
56631;SDS011;42503;39.928;-75.152;2022-08-03T11:10:29;2.75;;;2.55;;
56631;SDS011;42503;39.928;-75.152;2022-08-03T11:12:32;3.05;;;2.50;;
56631;SDS011;42503;39.928;-75.152;2022-08-03T11:14:44;2.75;;;2.45;;
56631;SDS011;42503;39.928;-75.152;2022-08-03T11:16:46;2.65;;;2.45;;
56631;SDS011;42503;39.928;-75.152;2022-08-03T11:20:58;3.05;;;2.78;;
56631;SDS011;42503;39.928;-75.152;2022-08-03T11:22:59;2.60;;;2.40;;
56631;SDS011;42503;39.928;-75.152;2022-08-03T11:25:01;2.67;;;2.47;;
56631;SDS011;42503;39.928;-75.152;2022-08-03T11:29:30;2.80;;;2.60;;
56631;SDS011;42503;39.928;-75.152;2022-08-03T11:33:31;3.47;;;2.70;;
56631;SDS011;42503;39.928;-75.152;2022-08-03T11:35:33;2.78;;;2.58;;
56631;SDS011;42503;39.928;-75.152;2022-08-03T11:40:02;2.75;;;1.95;;
56631;SDS011;42503;39.928;-75.152;2022-08-03T11:44:41;2.40;;;2.20;;
56631;SDS011;42503;39.928;-75.152;2022-08-03T11:46:42;2.50;;;2.30;;
56631;SDS011;42503;39.928;-75.152;2022-08-03T11:48:46;2.55;;;2.35;;
56631;SDS011;42503;39.928;-75.152;2022-08-03T11:50:47;2.47;;;2.28;;
56631;SDS011;42503;39.928;-75.152;2022-08-03T11:52:51;2.22;;;2.08;;
56631;SDS011;42503;39.928;-75.152;2022-08-03T11:54:52;2.47;;;2.28;;
56631;SDS011;42503;39.928;-75.152;2022-08-03T11:56:53;2.50;;;2.30;;
56631;SDS011;42503;39.928;-75.152;2022-08-03T11:58:55;2.35;;;2.20;;
56631;SDS011;42503;39.928;-75.152;2022-08-03T12:01:03;2.25;;;2.08;;
56631;SDS011;42503;39.928;-75.152;2022-08-03T12:03:06;2.40;;;2.20;;
56631;SDS011;42503;39.928;-75.152;2022-08-03T12:05:07;2.60;;;2.40;;
56631;SDS011;42503;39.928;-75.152;2022-08-03T12:07:08;2.50;;;2.30;;
56631;SDS011;42503;39.928;-75.152;2022-08-03T12:09:15;2.40;;;2.20;;
56631;SDS011;42503;39.928;-75.152;2022-08-03T12:11:18;2.67;;;2.47;;
56631;SDS011;42503;39.928;-75.152;2022-08-03T12:13:20;2.47;;;2.22;;
56631;SDS011;42503;39.928;-75.152;2022-08-03T12:15:24;3.75;;;2.20;;
56631;SDS011;42503;39.928;-75.152;2022-08-03T12:17:37;2.70;;;2.50;;
56631;SDS011;42503;39.928;-75.152;2022-08-03T12:19:40;2.25;;;2.05;;
56631;SDS011;42503;39.928;-75.152;2022-08-03T12:21:47;2.20;;;2.10;;
56631;SDS011;42503;39.928;-75.152;2022-08-03T12:23:48;2.13;;;1.92;;
56631;SDS011;42503;39.928;-75.152;2022-08-03T12:25:49;2.30;;;2.10;;
56631;SDS011;42503;39.928;-75.152;2022-08-03T12:27:50;2.45;;;2.25;;
56631;SDS011;42503;39.928;-75.152;2022-08-03T12:29:52;2.63;;;2.40;;
56631;SDS011;42503;39.928;-75.152;2022-08-03T12:31:53;2.13;;;1.92;;